sensor_id;sensor_type;location;lat;lon;timestamp;temperature;humidity
76291;DHT22;65100;46.884;17.410;2024-01-06T00:01:14;6.49;79.42
76291;DHT22;65100;46.884;17.410;2024-01-06T00:03:40;6.47;79.53
76291;DHT22;65100;46.884;17.410;2024-01-06T00:06:06;6.43;79.49
76291;DHT22;65100;46.884;17.410;2024-01-06T00:08:31;6.43;79.68
76291;DHT22;65100;46.884;17.410;2024-01-06T00:10:57;6.34;79.92
76291;DHT22;65100;46.884;17.410;2024-01-06T00:13:22;6.34;80.17
76291;DHT22;65100;46.884;17.410;2024-01-06T00:15:48;6.27;79.98
76291;DHT22;65100;46.884;17.410;2024-01-06T00:18:13;6.20;80.60
76291;DHT22;65100;46.884;17.410;2024-01-06T00:20:38;6.23;80.71
76291;DHT22;65100;46.884;17.410;2024-01-06T00:23:04;6.20;80.85
76291;DHT22;65100;46.884;17.410;2024-01-06T00:25:30;6.25;80.73
76291;DHT22;65100;46.884;17.410;2024-01-06T00:27:55;6.37;80.34
76291;DHT22;65100;46.884;17.410;2024-01-06T00:30:21;6.41;80.27
76291;DHT22;65100;46.884;17.410;2024-01-06T00:32:46;6.27;80.83
76291;DHT22;65100;46.884;17.410;2024-01-06T00:35:11;6.43;79.87
76291;DHT22;65100;46.884;17.410;2024-01-06T00:37:37;6.61;79.47
76291;DHT22;65100;46.884;17.410;2024-01-06T00:40:02;6.56;80.15
76291;DHT22;65100;46.884;17.410;2024-01-06T00:42:29;6.54;80.30
76291;DHT22;65100;46.884;17.410;2024-01-06T00:44:54;6.54;80.26
76291;DHT22;65100;46.884;17.410;2024-01-06T00:47:20;6.51;80.23
76291;DHT22;65100;46.884;17.410;2024-01-06T00:49:47;6.69;80.15
76291;DHT22;65100;46.884;17.410;2024-01-06T00:52:13;6.73;79.17
76291;DHT22;65100;46.884;17.410;2024-01-06T00:54:38;6.80;80.10
76291;DHT22;65100;46.884;17.410;2024-01-06T00:57:04;6.71;80.01
76291;DHT22;65100;46.884;17.410;2024-01-06T00:59:29;6.74;78.01
76291;DHT22;65100;46.884;17.410;2024-01-06T01:01:58;6.90;76.89
76291;DHT22;65100;46.884;17.410;2024-01-06T01:04:23;7.01;75.45
76291;DHT22;65100;46.884;17.410;2024-01-06T01:06:51;7.17;74.73
76291;DHT22;65100;46.884;17.410;2024-01-06T01:09:17;7.28;75.00
76291;DHT22;65100;46.884;17.410;2024-01-06T01:11:42;7.41;76.38
76291;DHT22;65100;46.884;17.410;2024-01-06T01:14:08;7.35;75.14
76291;DHT22;65100;46.884;17.410;2024-01-06T01:16:33;7.35;74.25
76291;DHT22;65100;46.884;17.410;2024-01-06T01:18:59;7.49;72.92
76291;DHT22;65100;46.884;17.410;2024-01-06T01:21:27;7.79;71.12
76291;DHT22;65100;46.884;17.410;2024-01-06T01:23:53;7.94;70.60
76291;DHT22;65100;46.884;17.410;2024-01-06T01:26:18;7.96;70.68
76291;DHT22;65100;46.884;17.410;2024-01-06T01:28:43;8.04;70.44
76291;DHT22;65100;46.884;17.410;2024-01-06T01:31:09;8.04;71.41
76291;DHT22;65100;46.884;17.410;2024-01-06T01:33:35;8.12;71.09
76291;DHT22;65100;46.884;17.410;2024-01-06T01:36:00;8.07;70.77
76291;DHT22;65100;46.884;17.410;2024-01-06T01:38:26;8.22;70.24
76291;DHT22;65100;46.884;17.410;2024-01-06T01:40:51;8.40;69.14
76291;DHT22;65100;46.884;17.410;2024-01-06T01:43:18;8.38;69.26
76291;DHT22;65100;46.884;17.410;2024-01-06T01:45:43;8.36;69.96
76291;DHT22;65100;46.884;17.410;2024-01-06T01:48:09;8.43;69.54
76291;DHT22;65100;46.884;17.410;2024-01-06T01:50:35;8.61;69.20
76291;DHT22;65100;46.884;17.410;2024-01-06T01:53:00;8.56;69.42
76291;DHT22;65100;46.884;17.410;2024-01-06T01:55:26;8.57;69.54
76291;DHT22;65100;46.884;17.410;2024-01-06T01:57:52;8.56;69.43
76291;DHT22;65100;46.884;17.410;2024-01-06T02:00:18;8.64;69.21
76291;DHT22;65100;46.884;17.410;2024-01-06T02:02:43;8.67;69.27
76291;DHT22;65100;46.884;17.410;2024-01-06T02:05:09;8.71;69.16
76291;DHT22;65100;46.884;17.410;2024-01-06T02:07:34;8.74;69.17
76291;DHT22;65100;46.884;17.410;2024-01-06T02:10:00;8.72;69.19
76291;DHT22;65100;46.884;17.410;2024-01-06T02:12:25;8.72;69.59
76291;DHT22;65100;46.884;17.410;2024-01-06T02:14:54;8.72;69.32
76291;DHT22;65100;46.884;17.410;2024-01-06T02:17:19;8.74;69.64
76291;DHT22;65100;46.884;17.410;2024-01-06T02:19:45;8.77;69.27
76291;DHT22;65100;46.884;17.410;2024-01-06T02:22:10;8.75;69.59
76291;DHT22;65100;46.884;17.410;2024-01-06T02:24:36;8.78;69.72
76291;DHT22;65100;46.884;17.410;2024-01-06T02:27:01;8.71;70.62
76291;DHT22;65100;46.884;17.410;2024-01-06T02:29:27;8.63;71.64
76291;DHT22;65100;46.884;17.410;2024-01-06T02:31:55;8.65;71.65
76291;DHT22;65100;46.884;17.410;2024-01-06T02:34:42;8.77;71.70
76291;DHT22;65100;46.884;17.410;2024-01-06T02:37:28;8.64;72.55
76291;DHT22;65100;46.884;17.410;2024-01-06T02:39:53;8.60;73.86
76291;DHT22;65100;46.884;17.410;2024-01-06T02:42:19;8.53;74.03
76291;DHT22;65100;46.884;17.410;2024-01-06T02:44:45;8.51;74.72
76291;DHT22;65100;46.884;17.410;2024-01-06T02:47:11;8.43;74.58
76291;DHT22;65100;46.884;17.410;2024-01-06T02:49:36;8.51;74.57
76291;DHT22;65100;46.884;17.410;2024-01-06T02:52:02;8.50;74.78
76291;DHT22;65100;46.884;17.410;2024-01-06T02:54:27;8.44;74.98
76291;DHT22;65100;46.884;17.410;2024-01-06T02:56:53;8.44;75.11
76291;DHT22;65100;46.884;17.410;2024-01-06T02:59:18;8.44;74.87
76291;DHT22;65100;46.884;17.410;2024-01-06T03:01:44;8.37;75.98
76291;DHT22;65100;46.884;17.410;2024-01-06T03:04:09;8.19;77.09
76291;DHT22;65100;46.884;17.410;2024-01-06T03:06:35;8.13;77.33
76291;DHT22;65100;46.884;17.410;2024-01-06T03:09:01;8.37;75.66
76291;DHT22;65100;46.884;17.410;2024-01-06T03:11:26;8.56;75.26
76291;DHT22;65100;46.884;17.410;2024-01-06T03:13:51;8.56;75.14
76291;DHT22;65100;46.884;17.410;2024-01-06T03:16:17;8.56;75.34
76291;DHT22;65100;46.884;17.410;2024-01-06T03:18:42;8.51;75.59
76291;DHT22;65100;46.884;17.410;2024-01-06T03:21:18;8.48;76.09
76291;DHT22;65100;46.884;17.410;2024-01-06T03:23:44;8.53;75.88
76291;DHT22;65100;46.884;17.410;2024-01-06T03:26:09;8.47;76.21
76291;DHT22;65100;46.884;17.410;2024-01-06T03:28:35;8.58;76.02
76291;DHT22;65100;46.884;17.410;2024-01-06T03:31:00;8.58;76.21
76291;DHT22;65100;46.884;17.410;2024-01-06T03:33:26;8.61;76.45
76291;DHT22;65100;46.884;17.410;2024-01-06T03:35:51;8.51;77.12
76291;DHT22;65100;46.884;17.410;2024-01-06T03:38:16;8.46;77.88
76291;DHT22;65100;46.884;17.410;2024-01-06T03:40:42;8.36;78.44
76291;DHT22;65100;46.884;17.410;2024-01-06T03:43:08;8.40;78.62
76291;DHT22;65100;46.884;17.410;2024-01-06T03:45:33;8.51;78.35
76291;DHT22;65100;46.884;17.410;2024-01-06T03:48:02;8.47;78.71
76291;DHT22;65100;46.884;17.410;2024-01-06T03:50:27;8.40;79.26
76291;DHT22;65100;46.884;17.410;2024-01-06T03:52:53;8.27;80.24
76291;DHT22;65100;46.884;17.410;2024-01-06T03:55:22;8.29;80.33
76291;DHT22;65100;46.884;17.410;2024-01-06T03:57:47;8.40;80.72
76291;DHT22;65100;46.884;17.410;2024-01-06T04:00:13;8.36;81.13
76291;DHT22;65100;46.884;17.410;2024-01-06T04:02:38;8.37;81.54
76291;DHT22;65100;46.884;17.410;2024-01-06T04:05:04;8.29;82.24
76291;DHT22;65100;46.884;17.410;2024-01-06T04:07:30;8.32;82.65
76291;DHT22;65100;46.884;17.410;2024-01-06T04:09:56;8.30;82.83
76291;DHT22;65100;46.884;17.410;2024-01-06T04:12:21;8.34;82.78
76291;DHT22;65100;46.884;17.410;2024-01-06T04:14:46;8.33;82.98
76291;DHT22;65100;46.884;17.410;2024-01-06T04:17:12;8.29;83.72
76291;DHT22;65100;46.884;17.410;2024-01-06T04:19:37;8.17;84.19
76291;DHT22;65100;46.884;17.410;2024-01-06T04:22:03;8.23;84.56
76291;DHT22;65100;46.884;17.410;2024-01-06T04:24:28;8.23;84.53
76291;DHT22;65100;46.884;17.410;2024-01-06T04:26:54;8.34;84.36
76291;DHT22;65100;46.884;17.410;2024-01-06T04:29:19;8.40;84.21
76291;DHT22;65100;46.884;17.410;2024-01-06T04:31:44;8.37;84.39
76291;DHT22;65100;46.884;17.410;2024-01-06T04:34:10;8.19;85.24
76291;DHT22;65100;46.884;17.410;2024-01-06T04:36:35;8.00;86.62
76291;DHT22;65100;46.884;17.410;2024-01-06T04:39:01;8.00;86.95
76291;DHT22;65100;46.884;17.410;2024-01-06T04:41:26;8.00;86.70
76291;DHT22;65100;46.884;17.410;2024-01-06T04:43:52;8.17;86.33
76291;DHT22;65100;46.884;17.410;2024-01-06T04:46:17;8.06;86.51
76291;DHT22;65100;46.884;17.410;2024-01-06T04:48:43;8.00;86.84
76291;DHT22;65100;46.884;17.410;2024-01-06T04:51:09;7.99;86.96
76291;DHT22;65100;46.884;17.410;2024-01-06T04:53:38;7.97;86.86
76291;DHT22;65100;46.884;17.410;2024-01-06T04:56:04;8.16;86.12
76291;DHT22;65100;46.884;17.410;2024-01-06T04:58:30;8.20;85.77
76291;DHT22;65100;46.884;17.410;2024-01-06T05:00:56;8.10;86.15
76291;DHT22;65100;46.884;17.410;2024-01-06T05:03:21;8.23;85.27
76291;DHT22;65100;46.884;17.410;2024-01-06T05:05:49;7.96;86.16
76291;DHT22;65100;46.884;17.410;2024-01-06T05:08:18;7.66;87.34
76291;DHT22;65100;46.884;17.410;2024-01-06T05:10:48;7.71;87.20
76291;DHT22;65100;46.884;17.410;2024-01-06T05:13:14;7.66;87.40
76291;DHT22;65100;46.884;17.410;2024-01-06T05:15:39;7.66;87.74
76291;DHT22;65100;46.884;17.410;2024-01-06T05:18:05;7.62;87.59
76291;DHT22;65100;46.884;17.410;2024-01-06T05:20:31;7.85;87.05
76291;DHT22;65100;46.884;17.410;2024-01-06T05:22:56;7.63;86.98
76291;DHT22;65100;46.884;17.410;2024-01-06T05:25:22;7.61;87.80
76291;DHT22;65100;46.884;17.410;2024-01-06T05:27:55;7.93;86.34
76291;DHT22;65100;46.884;17.410;2024-01-06T05:30:21;7.86;86.63
76291;DHT22;65100;46.884;17.410;2024-01-06T05:32:46;7.73;87.76
76291;DHT22;65100;46.884;17.410;2024-01-06T05:35:12;7.75;88.41
76291;DHT22;65100;46.884;17.410;2024-01-06T05:37:46;7.58;88.55
76291;DHT22;65100;46.884;17.410;2024-01-06T05:40:11;7.79;87.50
76291;DHT22;65100;46.884;17.410;2024-01-06T05:42:36;7.51;87.84
76291;DHT22;65100;46.884;17.410;2024-01-06T05:45:02;7.41;88.91
76291;DHT22;65100;46.884;17.410;2024-01-06T05:47:30;7.47;89.10
76291;DHT22;65100;46.884;17.410;2024-01-06T05:49:59;7.41;89.60
76291;DHT22;65100;46.884;17.410;2024-01-06T05:52:24;7.49;89.15
76291;DHT22;65100;46.884;17.410;2024-01-06T05:54:50;7.63;88.38
76291;DHT22;65100;46.884;17.410;2024-01-06T05:57:15;7.52;88.48
76291;DHT22;65100;46.884;17.410;2024-01-06T05:59:41;7.55;89.08
76291;DHT22;65100;46.884;17.410;2024-01-06T06:02:06;7.76;87.28
76291;DHT22;65100;46.884;17.410;2024-01-06T06:04:32;7.83;86.84
76291;DHT22;65100;46.884;17.410;2024-01-06T06:06:57;7.68;87.84
76291;DHT22;65100;46.884;17.410;2024-01-06T06:09:22;7.49;89.00
76291;DHT22;65100;46.884;17.410;2024-01-06T06:11:48;7.44;89.43
76291;DHT22;65100;46.884;17.410;2024-01-06T06:14:14;7.28;89.88
76291;DHT22;65100;46.884;17.410;2024-01-06T06:16:39;7.27;90.08
76291;DHT22;65100;46.884;17.410;2024-01-06T06:19:05;7.28;90.41
76291;DHT22;65100;46.884;17.410;2024-01-06T06:21:31;7.55;89.93
76291;DHT22;65100;46.884;17.410;2024-01-06T06:23:56;7.65;89.16
76291;DHT22;65100;46.884;17.410;2024-01-06T06:26:22;7.68;89.02
76291;DHT22;65100;46.884;17.410;2024-01-06T06:28:47;7.89;87.29
76291;DHT22;65100;46.884;17.410;2024-01-06T06:31:13;7.97;86.34
76291;DHT22;65100;46.884;17.410;2024-01-06T06:33:38;7.90;86.89
76291;DHT22;65100;46.884;17.410;2024-01-06T06:36:04;7.71;87.69
76291;DHT22;65100;46.884;17.410;2024-01-06T06:38:30;7.71;87.54
76291;DHT22;65100;46.884;17.410;2024-01-06T06:40:55;7.73;88.99
76291;DHT22;65100;46.884;17.410;2024-01-06T06:43:21;7.79;88.44
76291;DHT22;65100;46.884;17.410;2024-01-06T06:45:47;7.96;87.83
76291;DHT22;65100;46.884;17.410;2024-01-06T06:48:12;8.00;87.24
76291;DHT22;65100;46.884;17.410;2024-01-06T06:50:37;7.96;87.90
76291;DHT22;65100;46.884;17.410;2024-01-06T06:53:03;7.90;88.20
76291;DHT22;65100;46.884;17.410;2024-01-06T06:55:28;8.04;86.83
76291;DHT22;65100;46.884;17.410;2024-01-06T06:57:54;7.99;86.99
76291;DHT22;65100;46.884;17.410;2024-01-06T07:00:20;7.93;87.96
76291;DHT22;65100;46.884;17.410;2024-01-06T07:02:46;7.81;88.62
76291;DHT22;65100;46.884;17.410;2024-01-06T07:05:11;7.90;87.76
76291;DHT22;65100;46.884;17.410;2024-01-06T07:07:37;7.93;87.54
76291;DHT22;65100;46.884;17.410;2024-01-06T07:10:04;8.04;87.59
76291;DHT22;65100;46.884;17.410;2024-01-06T07:12:30;7.97;87.91
76291;DHT22;65100;46.884;17.410;2024-01-06T07:14:56;7.90;88.66
76291;DHT22;65100;46.884;17.410;2024-01-06T07:17:43;7.90;88.79
76291;DHT22;65100;46.884;17.410;2024-01-06T07:20:08;8.17;86.90
76291;DHT22;65100;46.884;17.410;2024-01-06T07:22:34;8.27;86.47
76291;DHT22;65100;46.884;17.410;2024-01-06T07:25:00;8.27;88.54
76291;DHT22;65100;46.884;17.410;2024-01-06T07:27:35;8.37;88.06
76291;DHT22;65100;46.884;17.410;2024-01-06T07:30:01;8.53;86.25
76291;DHT22;65100;46.884;17.410;2024-01-06T07:32:26;8.38;86.56
76291;DHT22;65100;46.884;17.410;2024-01-06T07:34:51;7.97;87.50
76291;DHT22;65100;46.884;17.410;2024-01-06T07:37:17;7.66;89.26
76291;DHT22;65100;46.884;17.410;2024-01-06T07:39:42;7.93;89.28
76291;DHT22;65100;46.884;17.410;2024-01-06T07:42:08;7.79;89.60
76291;DHT22;65100;46.884;17.410;2024-01-06T07:44:33;7.89;89.31
76291;DHT22;65100;46.884;17.410;2024-01-06T07:46:59;8.19;87.84
76291;DHT22;65100;46.884;17.410;2024-01-06T07:49:24;8.30;87.86
76291;DHT22;65100;46.884;17.410;2024-01-06T07:51:50;8.22;88.65
76291;DHT22;65100;46.884;17.410;2024-01-06T07:54:15;8.16;88.90
76291;DHT22;65100;46.884;17.410;2024-01-06T07:56:41;8.40;88.33
76291;DHT22;65100;46.884;17.410;2024-01-06T07:59:09;8.56;87.11
76291;DHT22;65100;46.884;17.410;2024-01-06T08:01:35;8.58;87.02
76291;DHT22;65100;46.884;17.410;2024-01-06T08:04:00;8.60;86.98
76291;DHT22;65100;46.884;17.410;2024-01-06T08:06:26;8.60;87.01
76291;DHT22;65100;46.884;17.410;2024-01-06T08:08:51;8.56;87.79
76291;DHT22;65100;46.884;17.410;2024-01-06T08:11:17;8.63;87.65
76291;DHT22;65100;46.884;17.410;2024-01-06T08:13:42;8.60;87.67
76291;DHT22;65100;46.884;17.410;2024-01-06T08:16:07;8.60;88.16
76291;DHT22;65100;46.884;17.410;2024-01-06T08:18:33;8.56;88.80
76291;DHT22;65100;46.884;17.410;2024-01-06T08:20:58;8.56;89.06
76291;DHT22;65100;46.884;17.410;2024-01-06T08:23:27;8.74;88.95
76291;DHT22;65100;46.884;17.410;2024-01-06T08:25:52;8.98;88.09
76291;DHT22;65100;46.884;17.410;2024-01-06T08:28:18;9.24;87.35
76291;DHT22;65100;46.884;17.410;2024-01-06T08:30:44;9.00;88.00
76291;DHT22;65100;46.884;17.410;2024-01-06T08:33:10;9.10;88.13
76291;DHT22;65100;46.884;17.410;2024-01-06T08:35:35;9.12;88.47
76291;DHT22;65100;46.884;17.410;2024-01-06T08:38:08;9.07;88.47
76291;DHT22;65100;46.884;17.410;2024-01-06T08:40:34;9.29;87.70
76291;DHT22;65100;46.884;17.410;2024-01-06T08:43:00;9.32;87.71
76291;DHT22;65100;46.884;17.410;2024-01-06T08:45:26;9.34;88.11
76291;DHT22;65100;46.884;17.410;2024-01-06T08:47:51;9.55;87.51
76291;DHT22;65100;46.884;17.410;2024-01-06T08:50:16;9.62;87.59
76291;DHT22;65100;46.884;17.410;2024-01-06T08:52:42;9.52;87.72
76291;DHT22;65100;46.884;17.410;2024-01-06T08:55:08;9.60;87.56
76291;DHT22;65100;46.884;17.410;2024-01-06T08:57:33;9.80;86.86
76291;DHT22;65100;46.884;17.410;2024-01-06T08:59:58;9.89;86.57
76291;DHT22;65100;46.884;17.410;2024-01-06T09:02:24;9.90;86.26
76291;DHT22;65100;46.884;17.410;2024-01-06T09:04:49;9.79;86.50
76291;DHT22;65100;46.884;17.410;2024-01-06T09:07:15;9.85;86.05
76291;DHT22;65100;46.884;17.410;2024-01-06T09:09:42;10.04;85.18
76291;DHT22;65100;46.884;17.410;2024-01-06T09:12:08;10.00;86.22
76291;DHT22;65100;46.884;17.410;2024-01-06T09:14:33;10.07;86.12
76291;DHT22;65100;46.884;17.410;2024-01-06T09:16:59;9.94;86.54
76291;DHT22;65100;46.884;17.410;2024-01-06T09:19:27;9.93;87.03
76291;DHT22;65100;46.884;17.410;2024-01-06T09:21:54;10.04;86.55
76291;DHT22;65100;46.884;17.410;2024-01-06T09:24:20;10.03;86.70
76291;DHT22;65100;46.884;17.410;2024-01-06T09:26:46;10.00;87.13
76291;DHT22;65100;46.884;17.410;2024-01-06T09:29:11;10.03;86.68
76291;DHT22;65100;46.884;17.410;2024-01-06T09:31:37;10.12;86.32
76291;DHT22;65100;46.884;17.410;2024-01-06T09:34:02;10.03;87.68
76291;DHT22;65100;46.884;17.410;2024-01-06T09:36:31;9.93;88.23
76291;DHT22;65100;46.884;17.410;2024-01-06T09:38:57;9.85;87.57
76291;DHT22;65100;46.884;17.410;2024-01-06T09:41:23;10.06;87.19
76291;DHT22;65100;46.884;17.410;2024-01-06T09:43:50;10.00;87.00
76291;DHT22;65100;46.884;17.410;2024-01-06T09:46:23;9.94;87.62
76291;DHT22;65100;46.884;17.410;2024-01-06T09:48:51;9.99;87.53
76291;DHT22;65100;46.884;17.410;2024-01-06T09:51:19;9.96;87.29
76291;DHT22;65100;46.884;17.410;2024-01-06T09:53:58;9.85;88.35
76291;DHT22;65100;46.884;17.410;2024-01-06T09:56:28;9.90;88.66
76291;DHT22;65100;46.884;17.410;2024-01-06T09:58:55;9.94;88.42
76291;DHT22;65100;46.884;17.410;2024-01-06T10:01:21;9.82;89.03
76291;DHT22;65100;46.884;17.410;2024-01-06T10:03:47;9.63;90.19
76291;DHT22;65100;46.884;17.410;2024-01-06T10:06:16;9.79;89.45
76291;DHT22;65100;46.884;17.410;2024-01-06T10:08:52;9.45;90.74
76291;DHT22;65100;46.884;17.410;2024-01-06T10:11:18;9.63;90.16
76291;DHT22;65100;46.884;17.410;2024-01-06T10:13:44;9.75;90.08
76291;DHT22;65100;46.884;17.410;2024-01-06T10:16:09;9.62;90.47
76291;DHT22;65100;46.884;17.410;2024-01-06T10:18:35;9.69;90.00
76291;DHT22;65100;46.884;17.410;2024-01-06T10:21:05;9.68;90.22
76291;DHT22;65100;46.884;17.410;2024-01-06T10:23:31;9.58;91.10
76291;DHT22;65100;46.884;17.410;2024-01-06T10:25:57;9.49;91.47
76291;DHT22;65100;46.884;17.410;2024-01-06T10:28:23;9.69;91.07
76291;DHT22;65100;46.884;17.410;2024-01-06T10:30:52;9.55;91.57
76291;DHT22;65100;46.884;17.410;2024-01-06T10:33:20;9.68;91.06
76291;DHT22;65100;46.884;17.410;2024-01-06T10:35:46;9.70;90.58
76291;DHT22;65100;46.884;17.410;2024-01-06T10:38:11;9.49;91.81
76291;DHT22;65100;46.884;17.410;2024-01-06T10:40:37;9.80;90.91
76291;DHT22;65100;46.884;17.410;2024-01-06T10:43:03;9.85;91.25
76291;DHT22;65100;46.884;17.410;2024-01-06T10:45:29;9.75;91.47
76291;DHT22;65100;46.884;17.410;2024-01-06T10:47:57;9.63;91.48
76291;DHT22;65100;46.884;17.410;2024-01-06T10:50:26;9.39;92.63
76291;DHT22;65100;46.884;17.410;2024-01-06T10:52:53;9.36;93.42
76291;DHT22;65100;46.884;17.410;2024-01-06T10:55:19;9.50;93.20
76291;DHT22;65100;46.884;17.410;2024-01-06T10:57:46;9.72;91.95
76291;DHT22;65100;46.884;17.410;2024-01-06T11:00:12;9.56;91.95
76291;DHT22;65100;46.884;17.410;2024-01-06T11:02:39;9.68;92.21
76291;DHT22;65100;46.884;17.410;2024-01-06T11:05:05;9.45;92.90
76291;DHT22;65100;46.884;17.410;2024-01-06T11:07:33;9.53;93.01
76291;DHT22;65100;46.884;17.410;2024-01-06T11:10:15;9.53;93.51
76291;DHT22;65100;46.884;17.410;2024-01-06T11:12:42;9.46;93.30
76291;DHT22;65100;46.884;17.410;2024-01-06T11:15:08;9.45;93.62
76291;DHT22;65100;46.884;17.410;2024-01-06T11:17:52;9.35;93.73
76291;DHT22;65100;46.884;17.410;2024-01-06T11:20:26;9.26;94.28
76291;DHT22;65100;46.884;17.410;2024-01-06T11:22:54;9.35;94.36
76291;DHT22;65100;46.884;17.410;2024-01-06T11:25:22;9.32;94.00
76291;DHT22;65100;46.884;17.410;2024-01-06T11:27:49;9.31;93.99
76291;DHT22;65100;46.884;17.410;2024-01-06T11:30:27;9.34;93.89
76291;DHT22;65100;46.884;17.410;2024-01-06T11:32:56;9.34;93.85
76291;DHT22;65100;46.884;17.410;2024-01-06T11:35:26;9.38;93.36
76291;DHT22;65100;46.884;17.410;2024-01-06T11:37:53;9.34;93.77
76291;DHT22;65100;46.884;17.410;2024-01-06T11:42:46;9.35;93.59
76291;DHT22;65100;46.884;17.410;2024-01-06T11:45:13;9.70;91.83
76291;DHT22;65100;46.884;17.410;2024-01-06T11:47:39;9.72;91.23
76291;DHT22;65100;46.884;17.410;2024-01-06T11:50:05;9.78;90.47
76291;DHT22;65100;46.884;17.410;2024-01-06T11:52:31;9.83;89.71
76291;DHT22;65100;46.884;17.410;2024-01-06T11:54:58;9.69;89.82
76291;DHT22;65100;46.884;17.410;2024-01-06T11:57:25;9.60;90.29
76291;DHT22;65100;46.884;17.410;2024-01-06T11:59:51;9.52;90.33
76291;DHT22;65100;46.884;17.410;2024-01-06T12:02:18;9.52;90.41
76291;DHT22;65100;46.884;17.410;2024-01-06T12:04:48;9.43;90.51
76291;DHT22;65100;46.884;17.410;2024-01-06T12:07:15;9.36;90.69
76291;DHT22;65100;46.884;17.410;2024-01-06T12:09:41;9.29;90.91
76291;DHT22;65100;46.884;17.410;2024-01-06T12:12:06;9.24;91.08
76291;DHT22;65100;46.884;17.410;2024-01-06T12:14:32;9.34;90.72
76291;DHT22;65100;46.884;17.410;2024-01-06T12:16:59;9.31;90.44
76291;DHT22;65100;46.884;17.410;2024-01-06T12:19:31;9.24;90.34
76291;DHT22;65100;46.884;17.410;2024-01-06T12:21:57;9.18;90.72
76291;DHT22;65100;46.884;17.410;2024-01-06T12:24:22;9.05;90.73
76291;DHT22;65100;46.884;17.410;2024-01-06T12:26:48;9.07;90.91
76291;DHT22;65100;46.884;17.410;2024-01-06T12:29:14;9.11;90.93
76291;DHT22;65100;46.884;17.410;2024-01-06T12:31:41;9.22;90.60
76291;DHT22;65100;46.884;17.410;2024-01-06T12:34:09;9.10;90.33
76291;DHT22;65100;46.884;17.410;2024-01-06T12:36:39;9.11;89.46
76291;DHT22;65100;46.884;17.410;2024-01-06T12:39:10;9.08;89.53
76291;DHT22;65100;46.884;17.410;2024-01-06T12:41:37;8.95;89.99
76291;DHT22;65100;46.884;17.410;2024-01-06T12:44:03;8.94;90.01
76291;DHT22;65100;46.884;17.410;2024-01-06T12:46:29;8.89;89.70
76291;DHT22;65100;46.884;17.410;2024-01-06T12:48:54;8.85;89.54
76291;DHT22;65100;46.884;17.410;2024-01-06T12:51:20;8.87;89.72
76291;DHT22;65100;46.884;17.410;2024-01-06T12:53:45;8.74;89.96
76291;DHT22;65100;46.884;17.410;2024-01-06T12:56:11;8.72;89.80
76291;DHT22;65100;46.884;17.410;2024-01-06T12:58:36;8.71;90.03
76291;DHT22;65100;46.884;17.410;2024-01-06T13:01:01;8.65;89.86
76291;DHT22;65100;46.884;17.410;2024-01-06T13:03:28;8.54;90.22
76291;DHT22;65100;46.884;17.410;2024-01-06T13:05:53;8.61;89.93
76291;DHT22;65100;46.884;17.410;2024-01-06T13:08:19;8.54;89.92
76291;DHT22;65100;46.884;17.410;2024-01-06T13:10:44;8.53;89.13
76291;DHT22;65100;46.884;17.410;2024-01-06T13:13:10;8.41;89.52
76291;DHT22;65100;46.884;17.410;2024-01-06T13:15:56;8.41;89.88
76291;DHT22;65100;46.884;17.410;2024-01-06T13:18:42;8.46;88.82
76291;DHT22;65100;46.884;17.410;2024-01-06T13:21:08;8.40;88.75
76291;DHT22;65100;46.884;17.410;2024-01-06T13:23:33;8.25;89.72
76291;DHT22;65100;46.884;17.410;2024-01-06T13:25:58;8.14;90.19
76291;DHT22;65100;46.884;17.410;2024-01-06T13:28:24;8.27;90.09
76291;DHT22;65100;46.884;17.410;2024-01-06T13:30:50;8.26;89.82
76291;DHT22;65100;46.884;17.410;2024-01-06T13:33:16;8.19;89.95
76291;DHT22;65100;46.884;17.410;2024-01-06T13:35:41;8.16;89.80
76291;DHT22;65100;46.884;17.410;2024-01-06T13:38:07;8.14;89.65
76291;DHT22;65100;46.884;17.410;2024-01-06T13:40:34;8.22;89.34
76291;DHT22;65100;46.884;17.410;2024-01-06T13:42:59;8.13;89.66
76291;DHT22;65100;46.884;17.410;2024-01-06T13:45:25;8.04;90.22
76291;DHT22;65100;46.884;17.410;2024-01-06T13:47:51;7.89;90.13
76291;DHT22;65100;46.884;17.410;2024-01-06T13:50:18;7.99;90.27
76291;DHT22;65100;46.884;17.410;2024-01-06T13:52:44;8.03;89.86
76291;DHT22;65100;46.884;17.410;2024-01-06T13:55:11;8.00;89.90
76291;DHT22;65100;46.884;17.410;2024-01-06T13:57:36;7.96;89.99
76291;DHT22;65100;46.884;17.410;2024-01-06T14:00:09;7.89;90.22
76291;DHT22;65100;46.884;17.410;2024-01-06T14:02:36;7.78;90.25
76291;DHT22;65100;46.884;17.410;2024-01-06T14:05:03;7.85;90.26
76291;DHT22;65100;46.884;17.410;2024-01-06T14:07:29;7.93;89.90
76291;DHT22;65100;46.884;17.410;2024-01-06T14:09:54;7.90;89.95
76291;DHT22;65100;46.884;17.410;2024-01-06T14:12:20;7.87;90.13
76291;DHT22;65100;46.884;17.410;2024-01-06T14:14:45;7.90;89.95
76291;DHT22;65100;46.884;17.410;2024-01-06T14:17:11;7.85;89.92
76291;DHT22;65100;46.884;17.410;2024-01-06T14:19:36;7.83;90.12
76291;DHT22;65100;46.884;17.410;2024-01-06T14:22:02;7.86;89.84
76291;DHT22;65100;46.884;17.410;2024-01-06T14:24:30;7.82;90.14
76291;DHT22;65100;46.884;17.410;2024-01-06T14:26:56;7.71;90.42
76291;DHT22;65100;46.884;17.410;2024-01-06T14:29:21;7.72;90.29
76291;DHT22;65100;46.884;17.410;2024-01-06T14:31:48;7.75;90.16
76291;DHT22;65100;46.884;17.410;2024-01-06T14:34:13;7.78;89.79
76291;DHT22;65100;46.884;17.410;2024-01-06T14:36:39;7.65;89.61
76291;DHT22;65100;46.884;17.410;2024-01-06T14:39:13;7.68;89.44
76291;DHT22;65100;46.884;17.410;2024-01-06T14:41:38;7.62;89.54
76291;DHT22;65100;46.884;17.410;2024-01-06T14:44:04;7.49;90.04
76291;DHT22;65100;46.884;17.410;2024-01-06T14:46:29;7.48;90.45
76291;DHT22;65100;46.884;17.410;2024-01-06T14:48:56;7.58;90.25
76291;DHT22;65100;46.884;17.410;2024-01-06T14:51:21;7.63;89.50
76291;DHT22;65100;46.884;17.410;2024-01-06T14:53:47;7.62;89.63
76291;DHT22;65100;46.884;17.410;2024-01-06T14:56:13;7.56;89.46
76291;DHT22;65100;46.884;17.410;2024-01-06T14:58:38;7.45;89.55
76291;DHT22;65100;46.884;17.410;2024-01-06T15:01:04;7.45;89.76
76291;DHT22;65100;46.884;17.410;2024-01-06T15:03:31;7.44;89.58
76291;DHT22;65100;46.884;17.410;2024-01-06T15:05:56;7.44;89.63
76291;DHT22;65100;46.884;17.410;2024-01-06T15:08:22;7.39;90.10
76291;DHT22;65100;46.884;17.410;2024-01-06T15:10:47;7.34;90.07
76291;DHT22;65100;46.884;17.410;2024-01-06T15:13:12;7.27;89.68
76291;DHT22;65100;46.884;17.410;2024-01-06T15:15:38;7.35;90.15
76291;DHT22;65100;46.884;17.410;2024-01-06T15:18:04;7.27;89.19
76291;DHT22;65100;46.884;17.410;2024-01-06T15:20:30;7.29;89.63
76291;DHT22;65100;46.884;17.410;2024-01-06T15:22:56;7.28;89.55
76291;DHT22;65100;46.884;17.410;2024-01-06T15:25:21;7.29;89.87
76291;DHT22;65100;46.884;17.410;2024-01-06T15:27:47;7.24;90.05